createdAt,value
2018-10-09T00:02:08.430Z,94.51
2018-10-09T00:04:37.967Z,94.49
2018-10-09T00:07:07.481Z,94.39
2018-10-09T00:09:37.062Z,94.46
2018-10-09T00:12:06.833Z,94.48
2018-10-09T00:14:36.581Z,94.60
2018-10-09T00:17:06.134Z,94.61
2018-10-09T00:19:35.781Z,94.58
2018-10-09T00:22:05.325Z,94.50
2018-10-09T00:24:35.035Z,94.62
2018-10-09T00:27:04.749Z,94.19
2018-10-09T00:29:35.001Z,94.26
2018-10-09T00:32:04.619Z,93.73
2018-10-09T00:34:34.210Z,93.74
2018-10-09T00:37:03.802Z,93.35
2018-10-09T00:39:33.403Z,92.74
2018-10-09T00:42:03.012Z,92.11
2018-10-09T00:44:32.506Z,92.22
2018-10-09T00:47:01.909Z,92.36
2018-10-09T00:49:31.402Z,92.13
2018-10-09T00:52:00.921Z,92.10
2018-10-09T00:54:30.531Z,92.08
2018-10-09T00:56:59.945Z,92.27
2018-10-09T00:59:30.039Z,92.12
2018-10-09T01:01:59.582Z,91.81
2018-10-09T01:04:29.959Z,91.63
2018-10-09T01:06:59.600Z,91.86
2018-10-09T01:09:29.408Z,91.87
2018-10-09T01:11:59.005Z,91.60
2018-10-09T01:14:28.604Z,91.21
2018-10-09T01:16:58.010Z,92.18
2018-10-09T01:19:27.493Z,91.79
2018-10-09T01:21:56.899Z,91.72
2018-10-09T01:24:26.521Z,91.66
2018-10-09T01:26:55.963Z,90.96
2018-10-09T01:29:25.525Z,90.94
2018-10-09T01:31:55.386Z,90.78
2018-10-09T01:34:25.367Z,91.43
2018-10-09T01:36:54.824Z,91.48
2018-10-09T01:39:24.263Z,90.99
2018-10-09T01:41:53.724Z,91.23
2018-10-09T01:44:23.327Z,91.14
2018-10-09T01:46:52.901Z,91.17
2018-10-09T01:49:22.432Z,91.39
2018-10-09T01:51:51.946Z,91.20
2018-10-09T01:54:21.725Z,91.98
2018-10-09T01:56:51.242Z,91.84
2018-10-09T01:59:20.759Z,92.08
2018-10-09T02:01:50.207Z,91.78
2018-10-09T02:04:19.946Z,92.04
2018-10-09T02:06:49.409Z,92.34
2018-10-09T02:09:18.922Z,91.66
2018-10-09T02:11:48.580Z,92.16
2018-10-09T02:14:18.260Z,92.58
2018-10-09T02:16:47.821Z,91.81
2018-10-09T02:19:17.285Z,92.58
2018-10-09T02:21:47.408Z,91.96
2018-10-09T02:24:16.860Z,92.06
2018-10-09T02:26:46.284Z,92.25
2018-10-09T02:29:15.844Z,91.99
2018-10-09T02:31:45.696Z,91.80
2018-10-09T02:34:15.287Z,91.06
2018-10-09T02:36:44.770Z,90.89
2018-10-09T02:39:14.356Z,91.42
2018-10-09T02:41:43.885Z,91.60
2018-10-09T02:44:13.392Z,91.22
2018-10-09T02:46:43.008Z,91.81
2018-10-09T02:49:12.750Z,91.92
2018-10-09T02:51:42.193Z,91.72
2018-10-09T02:54:11.714Z,92.00
2018-10-09T02:56:41.404Z,92.09
2018-10-09T02:59:10.922Z,91.83
2018-10-09T03:01:40.599Z,92.57
2018-10-09T03:04:10.353Z,91.36
2018-10-09T03:06:39.972Z,91.52
2018-10-09T03:09:10.352Z,91.13
2018-10-09T03:11:39.681Z,91.26
2018-10-09T03:14:09.282Z,90.76
2018-10-09T03:16:38.780Z,91.10
2018-10-09T03:19:08.560Z,90.83
2018-10-09T03:21:38.001Z,91.11
2018-10-09T03:24:08.419Z,91.50
2018-10-09T03:26:38.020Z,91.53
2018-10-09T03:29:07.941Z,91.58
2018-10-09T03:31:37.708Z,92.02
2018-10-09T03:34:07.276Z,91.71
2018-10-09T03:36:36.925Z,92.24
2018-10-09T03:39:08.549Z,92.02
2018-10-09T03:41:38.019Z,92.27
2018-10-09T03:44:07.460Z,92.42
2018-10-09T03:46:36.902Z,92.03
2018-10-09T03:49:06.668Z,92.63
2018-10-09T03:51:36.750Z,91.15
2018-10-09T03:54:06.268Z,92.21
2018-10-09T03:56:35.959Z,92.19
2018-10-09T03:59:06.023Z,91.89
2018-10-09T04:01:35.779Z,92.10
2018-10-09T04:04:05.303Z,91.75
2018-10-09T04:06:35.005Z,92.37
2018-10-09T04:09:05.832Z,91.84
2018-10-09T04:11:35.231Z,92.55
2018-10-09T04:14:04.908Z,92.20
2018-10-09T04:16:34.524Z,91.63
2018-10-09T04:19:05.070Z,91.60
2018-10-09T04:21:34.667Z,91.48
2018-10-09T04:24:05.531Z,91.76
2018-10-09T04:26:35.154Z,91.91
2018-10-09T04:29:04.747Z,91.55
2018-10-09T04:31:34.925Z,91.39
2018-10-09T04:34:04.572Z,91.56
2018-10-09T04:36:34.123Z,91.93
2018-10-09T04:39:04.451Z,91.38
2018-10-09T04:41:34.183Z,91.72
2018-10-09T04:44:03.944Z,91.63
2018-10-09T04:46:34.031Z,91.82
2018-10-09T04:49:03.469Z,92.36
2018-10-09T04:51:33.623Z,92.25
2018-10-09T04:54:03.311Z,92.29
2018-10-09T04:56:32.837Z,92.76
2018-10-09T04:59:02.499Z,92.44
2018-10-09T05:01:31.940Z,92.43
2018-10-09T05:04:01.388Z,92.38
2018-10-09T05:06:30.881Z,91.91
2018-10-09T05:09:00.645Z,92.01
2018-10-09T05:11:30.316Z,92.17
2018-10-09T05:13:59.817Z,91.98
2018-10-09T05:16:29.395Z,92.26
2018-10-09T05:18:58.990Z,92.13
2018-10-09T05:21:28.769Z,92.19
2018-10-09T05:23:58.189Z,92.01
2018-10-09T05:26:27.725Z,92.11
2018-10-09T05:28:57.174Z,92.26
2018-10-09T05:31:26.785Z,92.53
2018-10-09T05:33:56.351Z,92.32
2018-10-09T05:36:25.784Z,92.03
2018-10-09T05:38:55.161Z,92.49
2018-10-09T05:41:24.604Z,92.61
2018-10-09T05:43:54.064Z,92.25
2018-10-09T05:46:23.789Z,92.59
2018-10-09T05:48:53.213Z,93.05
2018-10-09T05:51:22.743Z,92.88
2018-10-09T05:53:52.431Z,93.38
2018-10-09T05:56:22.192Z,93.05
2018-10-09T05:58:51.624Z,92.70
2018-10-09T06:01:21.065Z,93.15
2018-10-09T06:03:50.629Z,93.25
2018-10-09T06:06:20.122Z,93.28
2018-10-09T06:08:49.535Z,92.82
2018-10-09T06:11:19.165Z,93.21
2018-10-09T06:13:48.773Z,93.10
2018-10-09T06:16:18.391Z,92.97
2018-10-09T06:18:47.864Z,93.00
2018-10-09T06:21:17.404Z,93.32
2018-10-09T06:23:46.990Z,94.14
2018-10-09T06:26:16.748Z,94.05
2018-10-09T06:28:46.829Z,94.19
2018-10-09T06:31:16.282Z,93.43
2018-10-09T06:33:45.803Z,94.08
2018-10-09T06:36:15.475Z,93.46
2018-10-09T06:38:44.924Z,93.84
2018-10-09T06:41:14.378Z,93.86
2018-10-09T06:43:43.984Z,93.96
2018-10-09T06:46:20.825Z,94.05
2018-10-09T06:48:50.833Z,94.14
2018-10-09T06:51:20.443Z,94.04
2018-10-09T06:53:50.225Z,94.20
2018-10-09T06:56:19.812Z,93.97
2018-10-09T06:58:49.364Z,94.17
2018-10-09T07:01:19.151Z,94.00
2018-10-09T07:03:48.610Z,93.27
2018-10-09T07:06:18.369Z,93.06
2018-10-09T07:08:47.926Z,93.27
2018-10-09T07:11:17.668Z,93.50
2018-10-09T07:13:47.149Z,93.62
2018-10-09T07:16:16.763Z,93.88
2018-10-09T07:18:46.199Z,94.18
2018-10-09T07:21:15.806Z,93.89
2018-10-09T07:23:45.417Z,94.25
2018-10-09T07:26:14.851Z,94.14
2018-10-09T07:28:44.272Z,93.73
2018-10-09T07:31:14.430Z,94.14
2018-10-09T07:33:43.785Z,93.68
2018-10-09T07:36:13.551Z,93.84
2018-10-09T07:38:43.066Z,93.70
2018-10-09T07:41:13.379Z,94.58
2018-10-09T07:43:42.779Z,94.17
2018-10-09T07:46:12.379Z,94.56
2018-10-09T07:48:42.043Z,94.34
2018-10-09T07:51:11.473Z,94.67
2018-10-09T07:53:40.910Z,94.60
2018-10-09T07:56:10.683Z,93.70
2018-10-09T07:58:40.230Z,93.80
2018-10-09T08:01:09.848Z,94.30
2018-10-09T08:03:39.305Z,93.87
2018-10-09T08:06:08.854Z,95.07
2018-10-09T08:08:38.235Z,94.58
2018-10-09T08:11:07.831Z,95.16
2018-10-09T08:13:37.399Z,94.73
2018-10-09T08:16:07.056Z,94.68
2018-10-09T08:18:36.607Z,94.45
2018-10-09T08:21:06.037Z,94.46
2018-10-09T08:23:35.460Z,91.51
2018-10-09T08:26:04.895Z,89.40
2018-10-09T08:28:34.526Z,85.80
2018-10-09T08:31:04.121Z,84.10
2018-10-09T08:33:33.652Z,84.20
2018-10-09T08:36:03.161Z,81.62
2018-10-09T08:38:32.569Z,79.00
2018-10-09T08:41:02.068Z,81.63
2018-10-09T08:43:31.605Z,81.52
2018-10-09T08:46:01.180Z,82.31
2018-10-09T08:48:30.839Z,79.14
2018-10-09T08:51:01.010Z,79.06
2018-10-09T08:53:30.584Z,77.20
2018-10-09T08:56:00.207Z,73.83
2018-10-09T08:58:30.207Z,74.65
2018-10-09T09:00:59.946Z,76.21
2018-10-09T09:03:29.641Z,73.33
2018-10-09T09:05:59.292Z,69.90
2018-10-09T09:08:28.707Z,73.87
2018-10-09T09:10:58.192Z,72.17
2018-10-09T09:13:27.792Z,70.86
2018-10-09T09:15:57.238Z,68.15
2018-10-09T09:18:26.693Z,72.10
2018-10-09T09:20:56.142Z,66.37
2018-10-09T09:23:25.560Z,67.04
2018-10-09T09:25:55.020Z,72.71
2018-10-09T09:28:24.423Z,72.87
2018-10-09T09:30:54.244Z,66.38
2018-10-09T09:33:23.599Z,65.59
2018-10-09T09:35:53.411Z,65.32
2018-10-09T09:38:22.838Z,66.42
2018-10-09T09:40:52.654Z,65.53
2018-10-09T09:43:22.136Z,68.46
2018-10-09T09:45:51.826Z,59.29
2018-10-09T09:48:21.572Z,59.96
2018-10-09T09:50:51.004Z,60.69
2018-10-09T09:53:20.607Z,62.39
2018-10-09T09:55:50.211Z,60.64
2018-10-09T09:58:19.759Z,57.85
2018-10-09T10:00:56.496Z,60.64
2018-10-09T10:03:26.889Z,58.64
2018-10-09T10:05:56.283Z,59.90
2018-10-09T10:08:25.774Z,58.30
2018-10-09T10:10:55.254Z,58.36
2018-10-09T10:13:24.703Z,59.12
2018-10-09T10:15:55.711Z,59.08
2018-10-09T10:18:25.667Z,60.69
2018-10-09T10:20:56.110Z,61.42
2018-10-09T10:23:25.731Z,59.98
2018-10-09T10:25:56.197Z,60.88
2018-10-09T10:28:25.802Z,61.64
2018-10-09T10:30:55.981Z,61.50
2018-10-09T10:33:25.562Z,62.80
2018-10-09T10:35:55.004Z,61.13
2018-10-09T10:38:24.466Z,62.78
2018-10-09T10:40:54.214Z,62.31
2018-10-09T10:43:23.945Z,60.88
2018-10-09T10:45:53.504Z,60.67
2018-10-09T10:48:23.182Z,60.91
2018-10-09T10:50:52.612Z,61.92
2018-10-09T10:53:22.263Z,60.36
2018-10-09T10:55:51.806Z,59.43
2018-10-09T10:58:21.424Z,60.43
2018-10-09T11:00:51.001Z,59.51
2018-10-09T11:03:20.531Z,60.05
2018-10-09T11:05:50.200Z,59.68
2018-10-09T11:08:20.782Z,59.44
2018-10-09T11:10:50.376Z,57.32
2018-10-09T11:13:20.615Z,59.81
2018-10-09T11:15:50.195Z,59.08
2018-10-09T11:18:19.829Z,62.01
2018-10-09T11:20:49.444Z,62.12
2018-10-09T11:23:19.185Z,61.38
2018-10-09T11:25:48.593Z,61.32
2018-10-09T11:28:18.381Z,60.76
2018-10-09T11:30:47.895Z,63.49
2018-10-09T11:33:17.581Z,62.56
2018-10-09T11:35:47.096Z,62.64
2018-10-09T11:38:17.085Z,60.79
2018-10-09T11:40:46.841Z,60.84
2018-10-09T11:43:16.336Z,60.08
2018-10-09T11:45:45.732Z,57.99
2018-10-09T11:48:15.481Z,59.13
2018-10-09T11:50:45.270Z,60.13
2018-10-09T11:53:15.007Z,56.65
2018-10-09T11:55:44.496Z,56.59
2018-10-09T11:58:14.214Z,55.88
2018-10-09T12:00:45.184Z,56.39
2018-10-09T12:03:14.969Z,55.61
2018-10-09T12:05:44.386Z,58.65
2018-10-09T12:08:14.075Z,56.01
2018-10-09T12:10:43.713Z,57.49
2018-10-09T12:13:13.406Z,58.04
2018-10-09T12:15:43.175Z,56.63
2018-10-09T12:18:12.892Z,54.65
2018-10-09T12:20:42.516Z,55.06
2018-10-09T12:23:12.133Z,54.33
2018-10-09T12:25:41.659Z,52.73
2018-10-09T12:28:11.291Z,54.03
2018-10-09T12:30:41.090Z,54.61
2018-10-09T12:33:10.662Z,53.47
2018-10-09T12:35:40.080Z,52.76
2018-10-09T12:38:09.766Z,53.07
2018-10-09T12:40:39.357Z,53.76
2018-10-09T12:43:09.030Z,54.30
2018-10-09T12:45:38.712Z,53.88
2018-10-09T12:48:08.487Z,55.78
2018-10-09T12:50:38.222Z,53.93
2018-10-09T12:53:07.789Z,54.74
2018-10-09T12:55:37.435Z,57.15
2018-10-09T12:58:07.002Z,55.84
2018-10-09T13:00:36.605Z,58.48
2018-10-09T13:03:06.976Z,59.04
2018-10-09T13:05:36.533Z,58.42
2018-10-09T13:08:06.216Z,59.11
2018-10-09T13:10:35.805Z,58.85
2018-10-09T13:13:06.215Z,57.54
2018-10-09T13:15:35.812Z,58.28
2018-10-09T13:18:05.342Z,57.05
2018-10-09T13:20:34.999Z,56.65
2018-10-09T13:23:04.610Z,57.16
2018-10-09T13:25:34.065Z,58.00
2018-10-09T13:28:03.819Z,57.95
2018-10-09T13:30:33.386Z,58.57
2018-10-09T13:33:03.075Z,59.10
2018-10-09T13:35:32.609Z,57.44
2018-10-09T13:38:02.070Z,59.61
2018-10-09T13:40:31.659Z,59.83
2018-10-09T13:43:01.170Z,58.47
2018-10-09T13:45:30.744Z,60.13
2018-10-09T13:48:00.908Z,60.44
2018-10-09T13:50:30.453Z,60.00
2018-10-09T13:53:00.311Z,60.66
2018-10-09T13:55:29.744Z,60.76
2018-10-09T13:57:59.481Z,60.99
2018-10-09T14:00:29.006Z,61.72
2018-10-09T14:02:59.141Z,62.63
2018-10-09T14:05:28.734Z,63.38
2018-10-09T14:07:58.195Z,62.07
2018-10-09T14:10:27.651Z,60.21
2018-10-09T14:12:57.195Z,61.03
2018-10-09T14:15:26.857Z,61.18
2018-10-09T14:17:56.302Z,61.52
2018-10-09T14:20:25.739Z,60.06
2018-10-09T14:22:55.277Z,60.58
2018-10-09T14:25:24.627Z,60.50
2018-10-09T14:27:54.594Z,60.37
2018-10-09T14:30:24.134Z,60.57
2018-10-09T14:32:53.564Z,61.40
2018-10-09T14:35:23.000Z,61.47
2018-10-09T14:37:52.604Z,64.02
2018-10-09T14:40:22.260Z,63.18
2018-10-09T14:42:52.293Z,63.71
2018-10-09T14:45:21.680Z,63.69
2018-10-09T14:47:51.512Z,65.20
2018-10-09T14:50:21.106Z,64.98
2018-10-09T14:52:50.683Z,66.12
2018-10-09T14:55:20.129Z,67.09
2018-10-09T14:57:49.569Z,69.16
2018-10-09T15:00:18.997Z,66.97
2018-10-09T15:02:48.501Z,68.93
2018-10-09T15:05:18.084Z,69.94
2018-10-09T15:07:47.831Z,69.99
2018-10-09T15:10:17.465Z,70.89
2018-10-09T15:12:47.175Z,68.80
2018-10-09T15:15:16.568Z,69.53
2018-10-09T15:17:46.048Z,71.34
2018-10-09T15:20:15.510Z,71.33
2018-10-09T15:22:44.964Z,72.14
2018-10-09T15:25:14.403Z,73.14
2018-10-09T15:27:43.893Z,73.32
2018-10-09T15:30:13.571Z,74.32
2018-10-09T15:32:43.044Z,75.28
2018-10-09T15:35:12.778Z,75.95
2018-10-09T15:37:42.216Z,76.07
2018-10-09T15:40:11.742Z,76.22
2018-10-09T15:42:41.324Z,77.40
2018-10-09T15:45:10.794Z,77.52
2018-10-09T15:47:40.327Z,78.85
2018-10-09T15:50:09.864Z,78.47
2018-10-09T15:52:39.557Z,79.24
2018-10-09T15:55:31.252Z,80.16
2018-10-09T15:58:22.843Z,80.65
2018-10-09T16:01:09.640Z,80.47
2018-10-09T16:04:03.383Z,81.64
2018-10-09T16:06:49.080Z,81.96
2018-10-09T16:09:38.520Z,82.94
2018-10-09T16:12:22.718Z,82.95
2018-10-09T16:15:06.661Z,84.02
2018-10-09T16:17:54.148Z,84.38
2018-10-09T16:20:43.376Z,84.33
2018-10-09T16:23:32.131Z,84.46
2018-10-09T16:26:02.676Z,84.51
2018-10-09T16:28:32.255Z,85.00
2018-10-09T16:31:01.636Z,84.63
2018-10-09T16:33:31.213Z,85.52
2018-10-09T16:36:00.694Z,85.49
2018-10-09T16:38:30.184Z,86.16
2018-10-09T16:40:59.713Z,86.22
2018-10-09T16:43:29.392Z,87.13
2018-10-09T16:45:58.865Z,85.93
2018-10-09T16:48:28.399Z,86.15
2018-10-09T16:50:57.872Z,86.97
2018-10-09T16:53:27.580Z,87.38
2018-10-09T16:55:57.163Z,87.61
2018-10-09T16:58:26.744Z,88.22
2018-10-09T17:00:56.253Z,87.95
2018-10-09T17:03:25.804Z,87.73
2018-10-09T17:05:55.281Z,88.72
2018-10-09T17:08:24.818Z,88.76
2018-10-09T17:10:54.201Z,89.02
2018-10-09T17:13:23.754Z,88.97
2018-10-09T17:15:53.280Z,89.54
2018-10-09T17:18:22.847Z,89.35
2018-10-09T17:20:52.154Z,89.21
2018-10-09T17:23:28.133Z,89.42
2018-10-09T17:25:58.880Z,89.55
2018-10-09T17:28:28.567Z,89.54
2018-10-09T17:30:58.627Z,90.01
2018-10-09T17:33:28.342Z,90.23
2018-10-09T17:35:57.714Z,89.97
2018-10-09T17:38:27.247Z,89.40
2018-10-09T17:40:56.847Z,88.93
2018-10-09T17:43:26.349Z,88.86
2018-10-09T17:45:55.926Z,89.54
2018-10-09T17:48:25.442Z,89.59
2018-10-09T17:50:54.907Z,89.43
2018-10-09T17:53:24.476Z,89.50
2018-10-09T17:55:53.989Z,89.47
2018-10-09T17:58:23.766Z,89.67
2018-10-09T18:00:53.476Z,89.81
2018-10-09T18:03:23.919Z,90.12
2018-10-09T18:05:53.630Z,90.40
2018-10-09T18:08:25.570Z,90.61
2018-10-09T18:11:05.207Z,90.04
2018-10-09T18:14:04.401Z,89.75
2018-10-09T18:19:57.251Z,88.93
2018-10-09T18:22:43.724Z,89.25
2018-10-09T18:28:48.593Z,89.61
2018-10-09T18:31:30.839Z,89.48
2018-10-09T18:34:16.705Z,88.99
2018-10-09T18:36:56.014Z,89.55
2018-10-09T18:39:38.876Z,89.83
2018-10-09T18:42:20.246Z,89.62
2018-10-09T18:45:01.960Z,89.91
2018-10-09T18:47:50.151Z,90.20
2018-10-09T18:50:29.038Z,90.31
2018-10-09T18:53:04.548Z,90.47
2018-10-09T18:55:34.219Z,89.84
2018-10-09T18:58:04.012Z,89.73
2018-10-09T19:00:33.596Z,89.78
2018-10-09T19:03:03.259Z,89.62
2018-10-09T19:05:33.061Z,89.31
2018-10-09T19:08:02.609Z,89.94
2018-10-09T19:10:32.255Z,90.07
2018-10-09T19:13:01.765Z,90.41
2018-10-09T19:15:32.336Z,90.33
2018-10-09T19:18:01.901Z,90.27
2018-10-09T19:20:31.892Z,90.10
2018-10-09T19:23:01.900Z,90.26
2018-10-09T19:25:31.396Z,89.99
2018-10-09T19:28:01.122Z,90.08
2018-10-09T19:30:30.929Z,90.14
2018-10-09T19:33:00.634Z,89.91
2018-10-09T19:35:30.418Z,90.03
2018-10-09T19:38:00.184Z,89.98
2018-10-09T19:40:29.870Z,89.98
2018-10-09T19:42:59.526Z,89.95
2018-10-09T19:45:29.249Z,89.76
2018-10-09T19:47:58.630Z,89.77
2018-10-09T19:50:28.305Z,90.36
2018-10-09T19:52:57.954Z,90.67
2018-10-09T19:55:27.572Z,91.06
2018-10-09T19:57:57.258Z,90.93
2018-10-09T20:00:26.865Z,90.84
2018-10-09T20:02:56.516Z,90.83
2018-10-09T20:05:26.244Z,90.50
2018-10-09T20:07:55.716Z,90.52
2018-10-09T20:10:25.499Z,90.46
2018-10-09T20:12:54.871Z,90.45
2018-10-09T20:15:24.481Z,89.99
2018-10-09T20:17:54.079Z,91.12
2018-10-09T20:20:23.511Z,90.93
2018-10-09T20:22:53.045Z,90.55
2018-10-09T20:25:22.846Z,91.18
2018-10-09T20:27:52.249Z,91.22
2018-10-09T20:30:21.910Z,91.62
2018-10-09T20:32:51.406Z,90.99
2018-10-09T20:35:21.154Z,90.66
2018-10-09T20:37:50.721Z,90.43
2018-10-09T20:40:20.398Z,90.11
2018-10-09T20:42:49.972Z,90.20
2018-10-09T20:45:19.692Z,90.66
2018-10-09T20:47:49.509Z,90.77
2018-10-09T20:50:19.535Z,89.67
2018-10-09T20:52:49.440Z,90.78
2018-10-09T20:55:19.445Z,89.73
2018-10-09T20:57:49.295Z,90.04
2018-10-09T21:00:19.688Z,90.23
2018-10-09T21:02:49.214Z,90.72
2018-10-09T21:05:18.942Z,90.93
2018-10-09T21:07:48.642Z,91.46
2018-10-09T21:10:18.304Z,91.23
2018-10-09T21:12:47.959Z,91.02
2018-10-09T21:15:17.584Z,91.03
2018-10-09T21:17:47.559Z,91.27
2018-10-09T21:20:17.108Z,90.11
2018-10-09T21:22:46.583Z,90.55
2018-10-09T21:25:16.325Z,90.52
2018-10-09T21:27:45.782Z,89.78
2018-10-09T21:30:15.676Z,90.15
2018-10-09T21:32:45.173Z,90.42
2018-10-09T21:35:14.705Z,90.90
2018-10-09T21:37:44.169Z,91.33
2018-10-09T21:40:13.687Z,91.52
2018-10-09T21:42:43.338Z,91.11
2018-10-09T21:45:12.813Z,90.63
2018-10-09T21:47:47.418Z,90.87
2018-10-09T21:50:17.530Z,91.45
2018-10-09T21:52:47.196Z,91.70
2018-10-09T21:55:16.939Z,91.38
2018-10-09T21:57:46.386Z,91.53
2018-10-09T22:00:16.506Z,91.80
2018-10-09T22:02:45.973Z,91.91
2018-10-09T22:05:16.480Z,92.23
2018-10-09T22:07:46.086Z,91.58
2018-10-09T22:10:15.782Z,91.62
2018-10-09T22:12:45.443Z,92.23
2018-10-09T22:15:15.047Z,92.27
2018-10-09T22:17:44.783Z,91.98
2018-10-09T22:20:15.035Z,91.34
2018-10-09T22:22:44.524Z,91.05
2018-10-09T22:25:14.091Z,91.04
2018-10-09T22:27:43.686Z,91.42
2018-10-09T22:30:13.356Z,91.75
2018-10-09T22:32:43.158Z,91.73
2018-10-09T22:35:13.147Z,92.20
2018-10-09T22:37:42.707Z,92.25
2018-10-09T22:40:12.298Z,91.71
2018-10-09T22:42:41.921Z,92.21
2018-10-09T22:45:11.524Z,91.61
2018-10-09T22:47:41.757Z,92.28
2018-10-09T22:50:11.522Z,91.62
2018-10-09T22:52:41.119Z,91.16
2018-10-09T22:55:10.726Z,91.54
2018-10-09T22:57:40.341Z,91.72
2018-10-09T23:00:09.877Z,91.47
2018-10-09T23:02:39.488Z,91.65
2018-10-09T23:05:09.269Z,91.25
2018-10-09T23:07:38.835Z,91.59
2018-10-09T23:10:08.636Z,91.36
2018-10-09T23:12:38.849Z,91.60
2018-10-09T23:15:09.571Z,91.57
2018-10-09T23:17:39.031Z,91.52
2018-10-09T23:20:09.109Z,91.28
2018-10-09T23:22:38.545Z,91.10
2018-10-09T23:25:08.002Z,92.06
2018-10-09T23:27:38.152Z,91.67
2018-10-09T23:30:08.154Z,91.85
2018-10-09T23:32:37.837Z,92.19
2018-10-09T23:35:07.368Z,92.02
2018-10-09T23:37:36.782Z,92.32
2018-10-09T23:40:06.344Z,91.47
2018-10-09T23:42:36.024Z,91.80
2018-10-09T23:45:05.602Z,91.60
2018-10-09T23:47:35.489Z,91.68
2018-10-09T23:50:05.286Z,92.00
2018-10-09T23:52:35.348Z,91.59
2018-10-09T23:55:05.098Z,91.16
2018-10-09T23:57:34.932Z,90.86
